createdAt,value
2022-07-28T00:00:05.869Z,3.67
2022-07-28T00:02:35.304Z,4.88
2022-07-28T00:05:02.656Z,5.63
2022-07-28T00:07:29.482Z,4.18
2022-07-28T00:10:00.341Z,5.15
2022-07-28T00:12:28.049Z,3.75
2022-07-28T00:14:54.990Z,3.60
2022-07-28T00:17:21.905Z,5.07
2022-07-28T00:19:48.702Z,4.50
2022-07-28T00:22:15.611Z,4.50
2022-07-28T00:24:42.483Z,5.82
2022-07-28T00:27:09.319Z,3.85
2022-07-28T00:29:49.288Z,6.25
2022-07-28T00:32:18.477Z,3.90
2022-07-28T00:34:45.356Z,3.90
2022-07-28T00:37:14.422Z,4.00
2022-07-28T00:39:42.841Z,4.30
2022-07-28T00:42:10.521Z,4.40
2022-07-28T00:44:41.652Z,4.00
2022-07-28T00:47:08.611Z,6.55
2022-07-28T00:49:35.494Z,4.60
2022-07-28T00:52:02.762Z,4.65
2022-07-28T00:54:29.674Z,5.10
2022-07-28T00:56:56.524Z,5.75
2022-07-28T00:59:23.428Z,3.97
2022-07-28T01:01:50.789Z,4.95
2022-07-28T01:04:21.310Z,3.95
2022-07-28T01:06:51.123Z,6.43
2022-07-28T01:09:30.829Z,5.03
2022-07-28T01:12:19.633Z,4.68
2022-07-28T01:15:15.430Z,4.30
2022-07-28T01:17:52.035Z,4.43
2022-07-28T01:20:34.680Z,5.82
2022-07-28T01:23:29.401Z,4.82
2022-07-28T01:26:30.301Z,5.10
2022-07-28T01:28:59.946Z,6.25
2022-07-28T01:31:31.095Z,8.10
2022-07-28T01:34:05.712Z,5.05
2022-07-28T01:36:38.290Z,6.22
2022-07-28T01:39:05.525Z,5.10
2022-07-28T01:41:34.691Z,5.38
2022-07-28T01:44:06.586Z,6.10
2022-07-28T01:46:35.698Z,4.78
2022-07-28T01:49:03.504Z,4.82
2022-07-28T01:51:33.476Z,4.88
2022-07-28T01:54:02.532Z,6.30
2022-07-28T01:56:33.209Z,7.55
2022-07-28T01:59:06.328Z,5.47
2022-07-28T02:01:38.794Z,6.35
2022-07-28T02:04:08.262Z,5.07
2022-07-28T02:06:37.256Z,5.95
2022-07-28T02:09:06.085Z,4.72
2022-07-28T02:11:41.407Z,4.28
2022-07-28T02:14:11.877Z,4.72
2022-07-28T02:16:46.808Z,6.20
2022-07-28T02:19:15.036Z,5.00
2022-07-28T02:21:42.990Z,4.93
2022-07-28T02:24:13.001Z,5.88
2022-07-28T02:26:47.023Z,5.60
2022-07-28T02:29:33.405Z,5.63
2022-07-28T02:32:28.181Z,7.00
2022-07-28T02:35:09.524Z,6.47
2022-07-28T02:37:40.071Z,8.68
2022-07-28T02:40:13.683Z,8.68
2022-07-28T02:42:41.895Z,6.15
2022-07-28T02:45:11.744Z,5.63
2022-07-28T02:47:46.533Z,5.57
2022-07-28T02:50:15.452Z,5.70
2022-07-28T02:52:43.950Z,5.95
2022-07-28T02:55:15.142Z,6.40
2022-07-28T02:57:44.611Z,7.28
2022-07-28T03:00:12.438Z,5.70
2022-07-28T03:02:41.314Z,6.15
2022-07-28T03:05:11.149Z,5.75
2022-07-28T03:07:41.238Z,6.20
2022-07-28T03:10:33.414Z,6.35
2022-07-28T03:13:02.162Z,6.53
2022-07-28T03:15:29.351Z,7.20
2022-07-28T03:17:56.137Z,7.35
2022-07-28T03:20:23.282Z,6.57
2022-07-28T03:22:50.114Z,6.70
2022-07-28T03:25:35.764Z,6.78
2022-07-28T03:28:08.133Z,6.82
2022-07-28T03:30:40.737Z,8.35
2022-07-28T03:33:08.061Z,6.75
2022-07-28T03:35:38.965Z,8.00
2022-07-28T03:38:13.547Z,6.70
2022-07-28T03:40:43.627Z,7.18
2022-07-28T03:43:14.576Z,6.03
2022-07-28T03:45:41.800Z,6.18
2022-07-28T03:48:15.045Z,7.07
2022-07-28T03:50:42.839Z,6.07
2022-07-28T03:53:19.082Z,5.90
2022-07-28T03:55:50.639Z,5.75
2022-07-28T03:58:26.083Z,6.45
2022-07-28T04:00:55.900Z,6.00
2022-07-28T04:03:42.395Z,7.07
2022-07-28T04:06:09.940Z,7.47
2022-07-28T04:08:36.808Z,5.85
2022-07-28T04:11:03.682Z,9.13
2022-07-28T04:13:32.238Z,6.93
2022-07-28T04:16:00.170Z,5.50
2022-07-28T04:18:27.132Z,5.10
2022-07-28T04:20:55.811Z,5.80
2022-07-28T04:23:24.048Z,6.72
2022-07-28T04:25:50.987Z,6.93
2022-07-28T04:28:17.902Z,5.00
2022-07-28T04:30:44.863Z,4.30
2022-07-28T04:33:12.961Z,4.75
2022-07-28T04:35:39.814Z,4.72
2022-07-28T04:38:07.752Z,4.85
2022-07-28T04:40:34.917Z,6.72
2022-07-28T04:43:03.684Z,6.38
2022-07-28T04:45:30.932Z,6.05
2022-07-28T04:47:57.855Z,7.00
2022-07-28T04:50:24.884Z,4.70
2022-07-28T04:52:58.892Z,4.70
2022-07-28T04:55:25.941Z,6.30
2022-07-28T04:57:52.740Z,4.30
2022-07-28T05:00:20.071Z,4.75
2022-07-28T05:02:50.203Z,6.55
2022-07-28T05:05:17.697Z,4.25
2022-07-28T05:07:44.637Z,4.55
2022-07-28T05:10:12.730Z,4.82
2022-07-28T05:12:39.942Z,4.35
2022-07-28T05:15:08.461Z,5.40
2022-07-28T05:17:37.000Z,5.38
2022-07-28T05:20:05.228Z,5.40
2022-07-28T05:22:42.517Z,6.00
2022-07-28T05:25:17.887Z,6.38
2022-07-28T05:27:45.865Z,4.90
2022-07-28T05:30:13.759Z,5.03
2022-07-28T05:32:40.752Z,5.47
2022-07-28T05:35:08.481Z,7.70
2022-07-28T05:37:36.831Z,5.47
2022-07-28T05:40:08.314Z,5.90
2022-07-28T05:42:38.257Z,7.07
2022-07-28T05:45:14.976Z,5.50
2022-07-28T05:47:45.696Z,4.90
2022-07-28T05:50:14.341Z,4.90
2022-07-28T05:52:41.406Z,5.38
2022-07-28T05:55:09.165Z,5.43
2022-07-28T05:57:37.381Z,5.00
2022-07-28T06:00:07.943Z,5.40
2022-07-28T06:02:39.493Z,5.13
2022-07-28T06:05:06.764Z,6.85
2022-07-28T06:07:43.490Z,6.68
2022-07-28T06:10:16.498Z,5.70
2022-07-28T06:12:49.374Z,6.05
2022-07-28T06:15:24.345Z,5.93
2022-07-28T06:17:53.218Z,8.23
2022-07-28T06:20:24.454Z,4.03
2022-07-28T06:22:55.288Z,5.07
2022-07-28T06:25:25.670Z,5.60
2022-07-28T06:27:55.018Z,5.47
2022-07-28T06:30:22.764Z,7.75
2022-07-28T06:32:50.124Z,5.90
2022-07-28T06:35:17.741Z,5.22
2022-07-28T06:37:48.290Z,5.13
2022-07-28T06:40:16.250Z,4.78
2022-07-28T06:42:44.454Z,5.05
2022-07-28T06:45:19.663Z,6.28
2022-07-28T06:47:48.452Z,5.03
2022-07-28T06:50:24.683Z,6.72
2022-07-28T06:52:59.033Z,5.15
2022-07-28T06:55:34.438Z,4.80
2022-07-28T06:58:05.655Z,5.18
2022-07-28T07:00:33.115Z,4.75
2022-07-28T07:03:00.834Z,5.28
2022-07-28T07:05:32.035Z,4.18
2022-07-28T07:07:59.485Z,4.95
2022-07-28T07:10:27.474Z,5.55
2022-07-28T07:12:54.440Z,6.03
2022-07-28T07:15:21.323Z,5.90
2022-07-28T07:17:48.149Z,4.50
2022-07-28T07:20:17.178Z,5.30
2022-07-28T07:22:46.245Z,4.97
2022-07-28T07:25:18.295Z,4.40
2022-07-28T07:27:46.324Z,5.20
2022-07-28T07:30:15.207Z,4.47
2022-07-28T07:32:42.476Z,4.85
2022-07-28T07:35:09.918Z,5.70
2022-07-28T07:37:38.086Z,5.32
2022-07-28T07:40:06.195Z,4.93
2022-07-28T07:42:33.718Z,5.10
2022-07-28T07:45:00.675Z,4.05
2022-07-28T07:47:27.737Z,5.55
2022-07-28T07:49:54.676Z,5.05
2022-07-28T07:52:21.659Z,5.18
2022-07-28T07:54:48.656Z,4.82
2022-07-28T07:57:15.656Z,3.55
2022-07-28T07:59:42.510Z,3.88
2022-07-28T08:02:09.657Z,3.28
2022-07-28T08:04:37.485Z,3.40
2022-07-28T08:07:05.872Z,3.08
2022-07-28T08:09:33.728Z,3.30
2022-07-28T08:12:00.646Z,6.32
2022-07-28T08:14:27.727Z,3.85
2022-07-28T08:16:56.587Z,4.00
2022-07-28T08:19:24.263Z,5.40
2022-07-28T08:21:51.427Z,4.05
2022-07-28T08:24:29.040Z,4.93
2022-07-28T08:27:02.472Z,4.93
2022-07-28T08:29:29.566Z,4.30
2022-07-28T08:31:56.928Z,4.50
2022-07-28T08:34:26.260Z,4.75
2022-07-28T08:36:58.832Z,4.70
2022-07-28T08:39:26.085Z,5.00
2022-07-28T08:42:05.354Z,6.13
2022-07-28T08:44:46.949Z,5.35
2022-07-28T08:47:15.830Z,4.97
2022-07-28T08:49:43.784Z,5.55
2022-07-28T08:52:12.814Z,5.60
2022-07-28T08:54:47.597Z,5.50
2022-07-28T08:57:21.903Z,5.18
2022-07-28T08:59:49.995Z,5.47
2022-07-28T09:02:17.416Z,6.20
2022-07-28T09:04:46.427Z,5.45
2022-07-28T09:07:16.081Z,5.25
2022-07-28T09:09:43.734Z,5.22
2022-07-28T09:12:11.103Z,5.88
2022-07-28T09:14:38.140Z,5.25
2022-07-28T09:17:05.575Z,6.18
2022-07-28T09:19:34.349Z,5.53
2022-07-28T09:22:03.519Z,5.63
2022-07-28T09:24:41.950Z,5.70
2022-07-28T09:27:11.946Z,5.88
2022-07-28T09:29:40.929Z,5.40
2022-07-28T09:32:08.722Z,5.93
2022-07-28T09:34:47.800Z,5.68
2022-07-28T09:37:27.762Z,5.70
2022-07-28T09:40:00.254Z,6.70
2022-07-28T09:42:46.146Z,6.72
2022-07-28T09:45:22.866Z,6.53
2022-07-28T09:48:09.814Z,7.13
2022-07-28T09:50:38.217Z,6.35
2022-07-28T09:53:28.518Z,7.25
2022-07-28T09:56:00.680Z,6.40
2022-07-28T09:58:30.465Z,6.30
2022-07-28T10:01:13.075Z,7.18
2022-07-28T10:03:42.827Z,6.63
2022-07-28T10:06:26.906Z,7.00
2022-07-28T10:08:56.000Z,7.57
2022-07-28T10:11:26.787Z,7.28
2022-07-28T10:14:00.679Z,7.90
2022-07-28T10:16:36.065Z,8.00
2022-07-28T10:19:05.545Z,7.57
2022-07-28T10:21:36.176Z,8.38
2022-07-28T10:24:06.354Z,7.75
2022-07-28T10:26:39.355Z,8.52
2022-07-28T10:29:09.512Z,8.45
2022-07-28T10:31:54.199Z,9.00
2022-07-28T10:34:31.523Z,8.10
2022-07-28T10:37:02.093Z,9.60
2022-07-28T10:39:33.044Z,9.30
2022-07-28T10:42:00.833Z,8.25
2022-07-28T10:44:28.303Z,9.85
2022-07-28T10:46:57.002Z,9.40
2022-07-28T10:49:27.606Z,9.60
2022-07-28T10:52:04.981Z,9.30
2022-07-28T10:55:01.501Z,10.15
2022-07-28T10:57:31.498Z,9.55
2022-07-28T11:00:13.113Z,9.48
2022-07-28T11:02:57.751Z,9.82
2022-07-28T11:05:39.269Z,9.70
2022-07-28T11:08:27.852Z,9.20
2022-07-28T11:11:09.263Z,9.18
2022-07-28T11:13:41.278Z,10.07
2022-07-28T11:16:14.626Z,9.80
2022-07-28T11:19:08.082Z,10.18
2022-07-28T11:22:16.073Z,10.07
2022-07-28T11:24:58.025Z,10.73
2022-07-28T11:27:40.311Z,10.05
2022-07-28T11:30:11.730Z,10.75
2022-07-28T11:32:50.675Z,10.40
2022-07-28T11:35:19.664Z,10.60
2022-07-28T11:38:01.861Z,10.52
2022-07-28T11:40:35.434Z,11.43
2022-07-28T11:43:22.089Z,11.65
2022-07-28T11:46:14.753Z,11.48
2022-07-28T11:48:47.432Z,11.73
2022-07-28T11:51:15.901Z,10.60
2022-07-28T11:53:44.125Z,11.20
2022-07-28T11:56:23.064Z,11.60
2022-07-28T11:59:00.656Z,12.10
2022-07-28T12:01:27.580Z,11.38
2022-07-28T12:04:00.198Z,10.77
2022-07-28T12:06:40.297Z,9.75
2022-07-28T12:09:09.239Z,11.23
2022-07-28T12:11:41.592Z,9.80
2022-07-28T12:14:10.735Z,10.13
2022-07-28T12:16:39.947Z,10.15
2022-07-28T12:19:08.869Z,10.13
2022-07-28T12:21:51.005Z,9.70
2022-07-28T12:24:28.279Z,9.88
2022-07-28T12:27:00.562Z,10.20
2022-07-28T12:29:35.963Z,10.30
2022-07-28T12:32:05.576Z,10.02
2022-07-28T12:34:39.803Z,9.98
2022-07-28T12:37:12.263Z,9.90
2022-07-28T12:39:42.311Z,10.60
2022-07-28T12:42:11.491Z,10.18
2022-07-28T12:44:40.907Z,10.85
2022-07-28T12:47:11.839Z,10.70
2022-07-28T12:49:40.839Z,10.30
2022-07-28T12:52:22.640Z,10.07
2022-07-28T12:54:55.395Z,10.50
2022-07-28T12:57:48.761Z,11.35
2022-07-28T13:00:19.661Z,10.90
2022-07-28T13:02:48.176Z,10.32
2022-07-28T13:05:53.768Z,10.93
2022-07-28T13:08:21.640Z,10.30
2022-07-28T13:10:55.596Z,10.05
2022-07-28T13:13:25.773Z,10.73
2022-07-28T13:16:13.060Z,10.40
2022-07-28T13:18:44.748Z,10.05
2022-07-28T13:21:12.213Z,11.07
2022-07-28T13:23:39.619Z,10.68
2022-07-28T13:26:07.717Z,11.10
2022-07-28T13:28:34.990Z,11.25
2022-07-28T13:31:02.157Z,11.30
2022-07-28T13:33:29.409Z,10.13
2022-07-28T13:35:57.094Z,10.13
2022-07-28T13:38:27.241Z,10.70
2022-07-28T13:40:56.677Z,10.73
2022-07-28T13:43:36.170Z,9.75
2022-07-28T13:46:03.986Z,10.77
2022-07-28T13:48:32.939Z,9.48
2022-07-28T13:51:00.539Z,10.80
2022-07-28T13:53:27.372Z,11.10
2022-07-28T13:55:57.285Z,10.68
2022-07-28T13:58:24.264Z,11.10
2022-07-28T14:00:51.372Z,11.18
2022-07-28T14:03:18.291Z,11.00
2022-07-28T14:05:45.215Z,11.38
2022-07-28T14:08:18.689Z,10.98
2022-07-28T14:10:48.296Z,10.45
2022-07-28T14:13:15.528Z,11.15
2022-07-28T14:15:42.399Z,11.23
2022-07-28T14:18:09.370Z,11.20
2022-07-28T14:20:36.304Z,10.95
2022-07-28T14:23:03.350Z,10.40
2022-07-28T14:25:47.972Z,10.68
2022-07-28T14:28:15.975Z,10.57
2022-07-28T14:30:43.283Z,11.15
2022-07-28T14:33:10.086Z,10.70
2022-07-28T14:35:36.942Z,10.60
2022-07-28T14:38:42.476Z,10.80
2022-07-28T14:40:52.469Z,10.60
2022-07-28T14:43:20.105Z,11.50
2022-07-28T14:45:51.973Z,11.90
2022-07-28T14:48:34.769Z,11.50
2022-07-28T14:51:01.756Z,11.10
2022-07-28T14:53:28.580Z,10.93
2022-07-28T14:55:55.461Z,11.48
2022-07-28T14:58:22.431Z,11.27
2022-07-28T15:00:49.268Z,10.88
2022-07-28T15:03:17.023Z,10.35
2022-07-28T15:05:43.976Z,10.35
2022-07-28T15:08:10.795Z,10.20
2022-07-28T15:10:37.746Z,11.00
2022-07-28T15:13:04.574Z,9.93
2022-07-28T15:15:31.503Z,10.02
2022-07-28T15:17:58.541Z,9.95
2022-07-28T15:20:25.415Z,11.00
2022-07-28T15:22:52.334Z,10.60
2022-07-28T15:25:21.952Z,10.18
2022-07-28T15:27:48.772Z,10.73
2022-07-28T15:30:15.658Z,9.98
2022-07-28T15:32:56.071Z,10.55
2022-07-28T15:35:25.062Z,10.57
2022-07-28T15:37:51.962Z,9.80
2022-07-28T15:40:18.926Z,9.52
2022-07-28T15:42:45.793Z,10.38
2022-07-28T15:45:12.725Z,10.27
2022-07-28T15:47:40.025Z,10.80
2022-07-28T15:50:07.010Z,10.05
2022-07-28T15:52:33.844Z,10.50
2022-07-28T15:55:00.629Z,10.05
2022-07-28T15:57:27.501Z,9.82
2022-07-28T16:00:06.083Z,9.63
2022-07-28T16:02:33.014Z,9.88
2022-07-28T16:05:01.129Z,9.15
2022-07-28T16:07:29.477Z,9.60
2022-07-28T16:09:56.964Z,8.98
2022-07-28T16:12:27.590Z,9.10
2022-07-28T16:14:54.486Z,9.35
2022-07-28T16:17:22.560Z,9.20
2022-07-28T16:19:51.239Z,9.40
2022-07-28T16:22:19.559Z,9.32
2022-07-28T16:24:47.368Z,9.23
2022-07-28T16:27:14.845Z,9.13
2022-07-28T16:29:42.302Z,9.30
2022-07-28T16:32:10.032Z,9.23
2022-07-28T16:34:37.166Z,9.15
2022-07-28T16:37:05.608Z,9.50
2022-07-28T16:39:34.367Z,9.18
2022-07-28T16:42:02.686Z,9.32
2022-07-28T16:44:29.755Z,8.82
2022-07-28T16:46:56.897Z,8.55
2022-07-28T16:49:24.558Z,8.65
2022-07-28T16:51:51.554Z,8.90
2022-07-28T16:54:18.868Z,9.00
2022-07-28T16:56:46.075Z,9.48
2022-07-28T16:59:12.923Z,9.40
2022-07-28T17:01:45.146Z,9.30
2022-07-28T17:04:16.568Z,9.88
2022-07-28T17:06:43.954Z,9.13
2022-07-28T17:09:11.430Z,9.02
2022-07-28T17:11:38.607Z,8.68
2022-07-28T17:14:05.624Z,8.85
2022-07-28T17:16:32.516Z,9.02
2022-07-28T17:18:59.749Z,8.63
2022-07-28T17:21:27.113Z,9.00
2022-07-28T17:23:54.107Z,9.07
2022-07-28T17:29:08.904Z,8.82
2022-07-28T17:31:36.491Z,9.13
2022-07-28T17:34:03.478Z,8.77
2022-07-28T17:36:34.051Z,8.77
2022-07-28T17:39:01.441Z,8.45
2022-07-28T17:41:28.304Z,8.75
2022-07-28T17:43:55.280Z,8.93
2022-07-28T17:46:22.220Z,8.85
2022-07-28T17:48:53.759Z,8.77
2022-07-28T17:51:20.752Z,8.93
2022-07-28T17:53:48.765Z,8.50
2022-07-28T17:56:17.190Z,8.18
2022-07-28T17:58:45.359Z,8.45
2022-07-28T18:01:15.213Z,8.60
2022-07-28T18:03:57.907Z,9.10
2022-07-28T18:06:33.457Z,9.10
2022-07-28T18:09:09.869Z,8.40
2022-07-28T18:11:56.546Z,8.57
2022-07-28T18:14:27.202Z,7.80
2022-07-28T18:16:57.781Z,8.05
2022-07-28T18:19:25.461Z,7.63
2022-07-28T18:21:52.366Z,8.18
2022-07-28T18:24:21.923Z,8.65
2022-07-28T18:26:53.679Z,8.63
2022-07-28T18:29:21.672Z,8.73
2022-07-28T18:31:52.787Z,8.57
2022-07-28T18:34:25.040Z,8.40
2022-07-28T18:36:55.871Z,8.85
2022-07-28T18:39:22.799Z,8.20
2022-07-28T18:41:49.677Z,9.23
2022-07-28T18:44:17.894Z,9.30
2022-07-28T18:46:45.321Z,9.32
2022-07-28T18:49:12.381Z,9.55
2022-07-28T18:51:39.281Z,9.48
2022-07-28T18:54:11.024Z,9.48
2022-07-28T18:56:37.860Z,9.43
2022-07-28T18:59:04.717Z,9.43
2022-07-28T19:01:31.620Z,9.35
2022-07-28T19:03:58.486Z,8.32
2022-07-28T19:06:25.291Z,9.15
2022-07-28T19:08:52.339Z,8.50
2022-07-28T19:11:20.164Z,8.60
2022-07-28T19:13:48.362Z,8.27
2022-07-28T19:16:15.332Z,8.00
2022-07-28T19:18:42.272Z,7.25
2022-07-28T19:21:09.173Z,7.72
2022-07-28T19:23:36.000Z,7.75
2022-07-28T19:26:03.821Z,7.10
2022-07-28T19:28:30.693Z,7.03
2022-07-28T19:30:58.671Z,6.75
2022-07-28T19:33:26.154Z,6.45
2022-07-28T19:35:53.000Z,6.30
2022-07-28T19:38:20.248Z,6.90
2022-07-28T19:40:47.323Z,7.32
2022-07-28T19:43:14.178Z,6.85
2022-07-28T19:45:41.194Z,6.88
2022-07-28T19:48:08.471Z,6.80
2022-07-28T19:50:36.329Z,7.13
2022-07-28T19:53:03.503Z,6.43
2022-07-28T19:55:35.028Z,6.60
2022-07-28T19:58:03.531Z,6.05
2022-07-28T20:00:30.415Z,5.65
2022-07-28T20:02:57.445Z,6.38
2022-07-28T20:05:24.421Z,5.30
2022-07-28T20:07:51.235Z,5.13
2022-07-28T20:10:18.235Z,4.88
2022-07-28T20:12:45.722Z,4.72
2022-07-28T20:15:12.995Z,4.72
2022-07-28T20:17:40.438Z,4.78
2022-07-28T20:20:09.766Z,4.60
2022-07-28T20:22:39.142Z,4.25
2022-07-28T20:25:09.720Z,4.38
2022-07-28T20:27:40.198Z,4.20
2022-07-28T20:30:12.281Z,4.00
2022-07-28T20:32:40.547Z,4.35
2022-07-28T20:35:08.672Z,3.92
2022-07-28T20:37:37.451Z,4.00
2022-07-28T20:40:09.611Z,4.05
2022-07-28T20:42:36.930Z,5.97
2022-07-28T20:45:04.776Z,4.22
2022-07-28T20:47:33.082Z,4.07
2022-07-28T20:50:00.861Z,3.97
2022-07-28T20:52:28.202Z,4.05
2022-07-28T20:54:55.426Z,3.70
2022-07-28T20:57:23.144Z,3.58
2022-07-28T20:59:52.072Z,4.88
2022-07-28T21:02:22.936Z,4.00
2022-07-28T21:04:50.876Z,3.88
2022-07-28T21:08:04.449Z,3.40
2022-07-28T21:10:07.194Z,4.18
2022-07-28T21:12:34.537Z,3.50
2022-07-28T21:15:02.130Z,3.60
2022-07-28T21:17:29.061Z,3.53
2022-07-28T21:19:55.885Z,5.75
2022-07-28T21:22:23.255Z,3.90
2022-07-28T21:24:55.445Z,3.78
2022-07-28T21:27:23.190Z,5.00
2022-07-28T21:32:17.841Z,3.55
2022-07-28T21:34:44.714Z,5.88
2022-07-28T21:37:12.853Z,3.45
2022-07-28T21:39:40.393Z,4.05
2022-07-28T21:42:08.844Z,5.28
2022-07-28T21:44:39.317Z,3.50
2022-07-28T21:47:06.281Z,3.67
2022-07-28T21:49:33.301Z,3.70
2022-07-28T21:52:00.223Z,4.47
2022-07-28T21:54:27.336Z,3.40
2022-07-28T21:56:54.323Z,6.55
2022-07-28T21:59:21.174Z,3.15
2022-07-28T22:01:48.162Z,3.65
2022-07-28T22:04:15.530Z,2.80
2022-07-28T22:06:45.951Z,2.90
2022-07-28T22:09:14.433Z,4.32
2022-07-28T22:11:41.410Z,3.22
2022-07-28T22:14:08.538Z,3.50
2022-07-28T22:16:35.501Z,3.70
2022-07-28T22:19:02.829Z,3.47
2022-07-28T22:21:29.853Z,3.42
2022-07-28T22:23:56.758Z,3.20
2022-07-28T22:26:23.618Z,6.35
2022-07-28T22:28:50.422Z,4.75
2022-07-28T22:31:17.293Z,4.95
2022-07-28T22:33:44.187Z,3.88
2022-07-28T22:36:11.103Z,3.90
2022-07-28T22:38:37.947Z,3.80
2022-07-28T22:41:04.920Z,4.22
2022-07-28T22:43:33.525Z,3.25
2022-07-28T22:46:00.946Z,5.82
2022-07-28T22:48:27.965Z,3.65
2022-07-28T22:50:55.241Z,3.88
2022-07-28T22:53:22.121Z,4.60
2022-07-28T22:58:33.149Z,3.72
2022-07-28T23:01:00.073Z,3.67
2022-07-28T23:03:29.584Z,4.60
2022-07-28T23:06:01.973Z,4.03
2022-07-28T23:08:29.206Z,4.65
2022-07-28T23:10:56.078Z,3.67
2022-07-28T23:13:22.958Z,5.10
2022-07-28T23:15:50.518Z,4.35
2022-07-28T23:18:17.561Z,3.95
2022-07-28T23:20:45.097Z,3.60
2022-07-28T23:23:12.451Z,5.72
2022-07-28T23:25:42.743Z,3.78
2022-07-28T23:28:10.509Z,3.15
2022-07-28T23:30:37.691Z,3.90
2022-07-28T23:33:05.540Z,3.67
2022-07-28T23:35:32.592Z,3.80
2022-07-28T23:37:59.562Z,4.65
2022-07-28T23:40:26.592Z,6.82
2022-07-28T23:42:53.484Z,4.35
2022-07-28T23:45:20.346Z,4.38
2022-07-28T23:47:47.212Z,3.72
2022-07-28T23:50:14.115Z,3.78
2022-07-28T23:52:40.949Z,4.15
2022-07-28T23:55:08.563Z,6.35
2022-07-28T23:57:35.489Z,5.43
